createdAt,value
2019-01-06T00:00:55.259Z,10.03
2019-01-06T00:03:40.472Z,9.97
2019-01-06T00:06:49.069Z,9.83
2019-01-06T00:09:47.711Z,10.93
2019-01-06T00:12:48.118Z,9.73
2019-01-06T00:15:43.555Z,9.90
2019-01-06T00:18:32.063Z,10.23
2019-01-06T00:21:21.495Z,9.90
2019-01-06T00:24:19.007Z,10.43
2019-01-06T00:27:12.488Z,10.03
2019-01-06T00:30:03.123Z,10.93
2019-01-06T00:33:00.318Z,10.33
2019-01-06T00:36:02.475Z,9.17
2019-01-06T00:38:53.676Z,10.50
2019-01-06T00:41:49.643Z,11.70
2019-01-06T00:44:40.311Z,10.53
2019-01-06T00:47:32.096Z,11.67
2019-01-06T00:50:23.934Z,8.87
2019-01-06T00:53:15.461Z,11.80
2019-01-06T00:56:12.274Z,12.20
2019-01-06T00:59:04.154Z,13.20
2019-01-06T01:01:55.664Z,13.30
2019-01-06T01:05:06.635Z,13.70
2019-01-06T01:07:57.985Z,14.23
2019-01-06T01:11:05.320Z,13.17
2019-01-06T01:13:57.251Z,14.63
2019-01-06T01:16:53.956Z,13.77
2019-01-06T01:19:48.278Z,14.23
2019-01-06T01:22:40.570Z,15.50
2019-01-06T01:25:32.293Z,13.53
2019-01-06T01:28:25.396Z,14.47
2019-01-06T01:31:30.057Z,14.57
2019-01-06T01:34:22.962Z,14.20
2019-01-06T01:37:18.940Z,13.30
2019-01-06T01:40:14.700Z,14.73
2019-01-06T01:43:09.590Z,13.47
2019-01-06T01:45:59.385Z,13.80
2019-01-06T01:49:05.814Z,13.77
2019-01-06T01:51:57.358Z,14.10
2019-01-06T01:54:50.781Z,14.93
2019-01-06T01:57:48.874Z,14.07
2019-01-06T02:00:54.672Z,14.53
2019-01-06T02:03:53.102Z,14.60
2019-01-06T02:06:52.894Z,14.60
2019-01-06T02:09:46.284Z,13.93
2019-01-06T02:12:40.197Z,14.63
2019-01-06T02:15:24.469Z,13.53
2019-01-06T02:18:17.936Z,14.70
2019-01-06T02:21:26.696Z,14.87
2019-01-06T02:24:20.586Z,15.40
2019-01-06T02:27:17.645Z,13.90
2019-01-06T02:30:25.408Z,12.30
2019-01-06T02:33:17.662Z,12.20
2019-01-06T02:36:25.861Z,14.07
2019-01-06T02:39:18.046Z,13.80
2019-01-06T02:42:10.038Z,14.50
2019-01-06T02:45:14.868Z,14.03
2019-01-06T02:48:07.521Z,12.47
2019-01-06T02:51:03.635Z,13.90
2019-01-06T02:53:55.534Z,14.10
2019-01-06T02:56:56.962Z,14.27
2019-01-06T02:59:49.278Z,13.47
2019-01-06T03:02:41.188Z,14.07
2019-01-06T03:05:49.116Z,13.43
2019-01-06T03:08:41.641Z,13.63
2019-01-06T03:11:33.487Z,12.77
2019-01-06T03:14:22.469Z,12.93
2019-01-06T03:17:18.203Z,12.50
2019-01-06T03:20:09.968Z,11.90
2019-01-06T03:23:02.458Z,11.93
2019-01-06T03:26:01.394Z,12.17
2019-01-06T03:28:53.043Z,11.97
2019-01-06T03:31:34.170Z,11.60
2019-01-06T03:34:30.175Z,11.37
2019-01-06T03:37:31.462Z,11.77
2019-01-06T03:40:24.661Z,11.80
2019-01-06T03:43:17.255Z,11.77
2019-01-06T03:46:05.636Z,10.90
2019-01-06T03:49:13.314Z,10.67
2019-01-06T03:52:05.335Z,8.27
2019-01-06T03:54:59.876Z,10.40
2019-01-06T03:57:51.230Z,9.97
2019-01-06T04:00:59.717Z,9.83
2019-01-06T04:03:52.392Z,10.17
2019-01-06T04:06:41.607Z,9.83
2019-01-06T04:09:34.314Z,9.33
2019-01-06T04:12:29.915Z,9.70
2019-01-06T04:15:22.676Z,10.23
2019-01-06T04:18:13.877Z,10.33
2019-01-06T04:21:14.305Z,10.47
2019-01-06T04:24:06.315Z,8.73
2019-01-06T04:27:01.370Z,7.87
2019-01-06T04:29:52.427Z,10.23
2019-01-06T04:32:54.303Z,10.20
2019-01-06T04:36:04.939Z,10.40
2019-01-06T04:39:15.584Z,9.97
2019-01-06T04:42:06.680Z,9.63
2019-01-06T04:45:00.374Z,9.57
2019-01-06T04:47:54.366Z,10.17
2019-01-06T04:50:55.789Z,10.43
2019-01-06T04:53:54.198Z,8.70
2019-01-06T04:56:49.985Z,9.23
2019-01-06T04:59:51.281Z,9.40
2019-01-06T05:02:44.522Z,9.17
2019-01-06T05:05:37.637Z,10.17
2019-01-06T05:08:45.480Z,8.83
2019-01-06T05:11:49.493Z,9.87
2019-01-06T05:14:41.719Z,8.30
2019-01-06T05:17:40.573Z,9.20
2019-01-06T05:20:33.132Z,9.60
2019-01-06T05:23:41.254Z,9.00
2019-01-06T05:26:40.671Z,8.57
2019-01-06T05:29:46.557Z,9.93
2019-01-06T05:32:41.983Z,9.47
2019-01-06T05:35:37.595Z,9.77
2019-01-06T05:38:28.961Z,10.33
2019-01-06T05:41:25.020Z,9.83
2019-01-06T05:44:15.558Z,9.30
2019-01-06T05:47:20.676Z,10.20
2019-01-06T05:50:22.469Z,8.83
2019-01-06T05:53:26.921Z,10.87
2019-01-06T05:56:18.119Z,9.83
2019-01-06T05:59:01.184Z,9.23
2019-01-06T06:01:55.447Z,10.57
2019-01-06T06:04:48.817Z,10.73
2019-01-06T06:07:53.285Z,11.07
2019-01-06T06:10:44.951Z,9.47
2019-01-06T06:13:37.270Z,8.93
2019-01-06T06:16:30.562Z,9.40
2019-01-06T06:19:26.856Z,9.97
2019-01-06T06:22:16.211Z,9.13
2019-01-06T06:25:23.650Z,8.57
2019-01-06T06:28:24.609Z,9.30
2019-01-06T06:31:23.659Z,9.17
2019-01-06T06:34:13.483Z,9.23
2019-01-06T06:36:57.878Z,8.33
2019-01-06T06:39:52.402Z,8.70
2019-01-06T06:42:52.976Z,7.80
2019-01-06T06:45:43.017Z,7.63
2019-01-06T06:48:38.447Z,7.17
2019-01-06T06:51:35.960Z,7.13
2019-01-06T06:54:26.162Z,7.20
2019-01-06T06:57:52.859Z,7.53
2019-01-06T07:00:54.075Z,7.63
2019-01-06T07:03:51.119Z,7.50
2019-01-06T07:06:40.819Z,8.53
2019-01-06T07:09:36.445Z,8.67
2019-01-06T07:12:40.058Z,9.30
2019-01-06T07:15:31.973Z,9.27
2019-01-06T07:18:28.262Z,10.27
2019-01-06T07:21:20.702Z,9.43
2019-01-06T07:24:25.893Z,9.37
2019-01-06T07:27:17.851Z,10.27
2019-01-06T07:30:05.987Z,10.20
2019-01-06T07:33:05.278Z,10.33
2019-01-06T07:36:08.200Z,11.33
2019-01-06T07:39:01.843Z,11.70
2019-01-06T07:42:00.518Z,10.47
2019-01-06T07:44:44.768Z,10.83
2019-01-06T07:47:51.660Z,12.30
2019-01-06T07:50:39.307Z,12.40
2019-01-06T07:53:45.211Z,12.37
2019-01-06T07:56:40.019Z,11.60
2019-01-06T07:59:23.778Z,12.57
2019-01-06T08:02:22.608Z,11.43
2019-01-06T08:05:15.601Z,11.83
2019-01-06T08:08:12.230Z,12.07
2019-01-06T08:11:15.478Z,12.37
2019-01-06T08:14:07.944Z,11.50
2019-01-06T08:16:59.975Z,12.10
2019-01-06T08:19:55.007Z,11.70
2019-01-06T08:22:47.122Z,10.77
2019-01-06T08:25:40.427Z,12.00
2019-01-06T08:28:33.501Z,12.77
2019-01-06T08:31:27.976Z,12.57
2019-01-06T08:34:36.204Z,11.70
2019-01-06T08:37:27.330Z,13.63
2019-01-06T08:40:26.735Z,12.20
2019-01-06T08:43:22.176Z,11.83
2019-01-06T08:46:31.097Z,10.63
2019-01-06T08:49:23.535Z,10.67
2019-01-06T08:52:15.770Z,10.63
2019-01-06T08:55:04.436Z,10.97
2019-01-06T08:58:13.556Z,10.83
2019-01-06T09:01:22.915Z,9.90
2019-01-06T09:04:23.544Z,10.83
2019-01-06T09:07:37.542Z,10.07
2019-01-06T09:10:32.194Z,11.13
2019-01-06T09:13:28.452Z,10.60
2019-01-06T09:16:22.465Z,10.03
2019-01-06T09:19:15.184Z,10.20
2019-01-06T09:22:05.442Z,10.87
2019-01-06T09:25:14.117Z,10.10
2019-01-06T09:28:08.431Z,9.63
2019-01-06T09:30:58.764Z,8.87
2019-01-06T09:33:51.285Z,9.77
2019-01-06T09:36:53.280Z,10.00
2019-01-06T09:39:43.234Z,8.73
2019-01-06T09:42:37.692Z,9.10
2019-01-06T09:45:44.109Z,8.97
2019-01-06T09:48:51.705Z,8.00
2019-01-06T09:51:55.804Z,9.03
2019-01-06T09:55:09.618Z,9.13
2019-01-06T09:58:07.820Z,8.27
2019-01-06T10:01:00.596Z,8.77
2019-01-06T10:04:13.358Z,9.07
2019-01-06T10:07:20.583Z,9.53
2019-01-06T10:10:11.743Z,8.13
2019-01-06T10:13:16.161Z,8.40
2019-01-06T10:16:09.169Z,8.20
2019-01-06T10:19:04.631Z,8.27
2019-01-06T10:22:00.240Z,6.73
2019-01-06T10:24:56.251Z,7.20
2019-01-06T10:27:57.090Z,6.87
2019-01-06T10:33:49.254Z,7.07
2019-01-06T10:36:48.153Z,7.63
2019-01-06T10:39:47.022Z,7.83
2019-01-06T10:42:54.596Z,7.53
2019-01-06T10:45:39.984Z,7.37
2019-01-06T10:48:30.131Z,7.97
2019-01-06T10:51:21.008Z,7.77
2019-01-06T10:54:19.315Z,8.33
2019-01-06T10:57:21.721Z,9.27
2019-01-06T11:00:22.196Z,8.53
2019-01-06T11:03:07.581Z,7.80
2019-01-06T11:05:59.822Z,8.07
2019-01-06T11:09:04.049Z,8.80
2019-01-06T11:11:55.518Z,8.03
2019-01-06T11:14:42.149Z,7.80
2019-01-06T11:17:34.043Z,9.73
2019-01-06T11:20:49.883Z,8.30
2019-01-06T11:23:41.058Z,8.87
2019-01-06T11:26:37.772Z,8.97
2019-01-06T11:29:32.316Z,8.23
2019-01-06T11:32:32.637Z,8.03
2019-01-06T11:35:24.040Z,7.67
2019-01-06T11:38:15.828Z,7.07
2019-01-06T11:41:11.078Z,7.93
2019-01-06T11:44:18.607Z,6.90
2019-01-06T11:47:09.572Z,6.67
2019-01-06T11:49:58.539Z,6.73
2019-01-06T11:52:54.277Z,6.97
2019-01-06T11:55:45.388Z,7.17
2019-01-06T11:58:37.437Z,6.37
2019-01-06T12:01:35.057Z,6.73
2019-01-06T12:04:46.057Z,6.23
2019-01-06T12:07:58.450Z,5.97
2019-01-06T12:10:57.566Z,5.07
2019-01-06T12:13:51.763Z,6.17
2019-01-06T12:16:47.536Z,5.30
2019-01-06T12:19:54.803Z,5.20
2019-01-06T12:23:00.275Z,5.13
2019-01-06T12:25:58.856Z,5.10
2019-01-06T12:28:46.730Z,4.90
2019-01-06T12:31:35.339Z,5.10
2019-01-06T12:34:27.747Z,4.83
2019-01-06T12:37:35.272Z,4.70
2019-01-06T12:40:28.897Z,4.87
2019-01-06T12:43:18.751Z,4.30
2019-01-06T12:46:24.329Z,4.93
2019-01-06T12:49:16.812Z,4.60
2019-01-06T12:52:20.687Z,4.20
2019-01-06T12:55:28.448Z,4.30
2019-01-06T12:58:36.092Z,4.70
2019-01-06T13:01:28.425Z,3.87
2019-01-06T13:04:33.290Z,4.43
2019-01-06T13:07:16.166Z,4.27
2019-01-06T13:10:14.789Z,3.97
2019-01-06T13:13:10.522Z,4.00
2019-01-06T13:16:12.427Z,3.73
2019-01-06T13:19:06.813Z,3.40
2019-01-06T13:22:01.028Z,4.40
2019-01-06T13:24:50.630Z,3.40
2019-01-06T13:27:46.337Z,3.10
2019-01-06T13:30:34.203Z,3.47
2019-01-06T13:33:31.759Z,3.23
2019-01-06T13:36:33.920Z,3.37
2019-01-06T13:39:17.582Z,4.27
2019-01-06T13:42:09.944Z,3.43
2019-01-06T13:45:01.039Z,3.20
2019-01-06T13:47:57.233Z,3.67
2019-01-06T13:50:46.929Z,3.63
2019-01-06T13:53:44.833Z,3.40
2019-01-06T13:56:34.426Z,3.03
2019-01-06T13:59:22.484Z,3.23
2019-01-06T14:02:12.855Z,3.23
2019-01-06T14:04:56.865Z,3.10
2019-01-06T14:08:01.517Z,3.33
2019-01-06T14:10:57.089Z,3.20
2019-01-06T14:13:46.702Z,3.10
2019-01-06T14:16:41.945Z,3.60
2019-01-06T14:19:36.968Z,3.43
2019-01-06T14:22:27.817Z,3.70
2019-01-06T14:25:40.566Z,3.57
2019-01-06T14:28:38.181Z,3.80
2019-01-06T14:31:56.083Z,3.43
2019-01-06T14:35:02.114Z,3.83
2019-01-06T14:37:55.084Z,3.60
2019-01-06T14:41:02.943Z,3.57
2019-01-06T14:43:56.479Z,4.07
2019-01-06T14:46:44.883Z,3.33
2019-01-06T14:49:34.194Z,3.10
2019-01-06T14:52:31.495Z,3.30
2019-01-06T14:55:19.754Z,3.33
2019-01-06T14:58:10.051Z,3.00
2019-01-06T15:01:17.601Z,3.53
2019-01-06T15:04:23.025Z,2.63
2019-01-06T15:07:12.241Z,3.40
2019-01-06T15:10:08.812Z,3.67
2019-01-06T15:12:58.419Z,3.33
2019-01-06T15:16:00.251Z,3.70
2019-01-06T15:18:48.040Z,3.40
2019-01-06T15:21:43.358Z,3.90
2019-01-06T15:24:51.406Z,3.47
2019-01-06T15:27:42.364Z,3.80
2019-01-06T15:30:46.989Z,3.67
2019-01-06T15:33:35.204Z,4.03
2019-01-06T15:36:23.520Z,4.10
2019-01-06T15:39:20.818Z,4.30
2019-01-06T15:42:19.412Z,4.40
2019-01-06T15:45:14.084Z,4.70
2019-01-06T15:48:25.140Z,4.53
2019-01-06T15:51:11.804Z,5.78
2019-01-06T15:54:02.613Z,5.23
2019-01-06T15:56:53.979Z,5.60
2019-01-06T15:59:44.946Z,5.13
2019-01-06T16:02:35.942Z,5.53
2019-01-06T16:05:33.164Z,5.13
2019-01-06T16:08:42.067Z,5.50
2019-01-06T16:11:33.480Z,6.30
2019-01-06T16:14:23.703Z,7.07
2019-01-06T16:17:17.280Z,6.83
2019-01-06T16:20:08.163Z,6.90
2019-01-06T16:23:05.276Z,6.93
2019-01-06T16:25:53.537Z,7.80
2019-01-06T16:28:50.259Z,7.47
2019-01-06T16:31:50.452Z,7.33
2019-01-06T16:34:39.675Z,7.63
2019-01-06T16:37:38.377Z,7.80
2019-01-06T16:40:42.252Z,7.63
2019-01-06T16:43:38.123Z,8.07
2019-01-06T16:46:34.742Z,8.43
2019-01-06T16:49:29.070Z,8.70
2019-01-06T16:52:19.333Z,8.53
2019-01-06T16:55:12.752Z,8.90
2019-01-06T16:58:01.914Z,9.07
2019-01-06T17:00:51.673Z,10.10
2019-01-06T17:03:44.953Z,10.33
2019-01-06T17:06:42.096Z,11.03
2019-01-06T17:09:31.480Z,10.77
2019-01-06T17:12:25.814Z,11.03
2019-01-06T17:15:22.707Z,12.30
2019-01-06T17:18:13.238Z,11.80
2019-01-06T17:21:03.285Z,12.57
2019-01-06T17:24:15.704Z,12.83
2019-01-06T17:27:16.627Z,12.43
2019-01-06T17:30:10.417Z,11.70
2019-01-06T17:33:02.156Z,13.30
2019-01-06T17:35:42.676Z,14.63
2019-01-06T17:38:34.542Z,13.83
2019-01-06T17:41:24.999Z,13.47
2019-01-06T17:44:22.980Z,14.33
2019-01-06T17:47:18.334Z,14.73
2019-01-06T17:50:08.786Z,15.30
2019-01-06T17:53:09.470Z,15.53
2019-01-06T17:56:05.074Z,13.53
2019-01-06T17:59:01.643Z,15.97
2019-01-06T18:01:53.488Z,15.27
2019-01-06T18:04:52.014Z,17.30
2019-01-06T18:07:41.679Z,16.77
2019-01-06T18:10:33.491Z,17.00
2019-01-06T18:13:40.243Z,17.67
2019-01-06T18:16:37.834Z,17.33
2019-01-06T18:19:29.406Z,18.07
2019-01-06T18:22:18.737Z,16.90
2019-01-06T18:25:24.246Z,16.90
2019-01-06T18:28:22.947Z,18.10
2019-01-06T18:31:14.380Z,18.00
2019-01-06T18:34:00.805Z,18.07
2019-01-06T18:37:01.845Z,16.90
2019-01-06T18:40:00.557Z,17.83
2019-01-06T18:42:52.116Z,18.97
2019-01-06T18:45:47.199Z,17.53
2019-01-06T18:48:56.673Z,18.10
2019-01-06T18:51:44.468Z,17.63
2019-01-06T18:54:42.565Z,18.67
2019-01-06T18:57:40.364Z,17.03
2019-01-06T19:00:28.941Z,18.07
2019-01-06T19:03:23.694Z,17.93
2019-01-06T19:06:16.043Z,16.20
2019-01-06T19:09:27.476Z,15.57
2019-01-06T19:12:22.375Z,17.33
2019-01-06T19:15:21.156Z,17.80
2019-01-06T19:18:07.228Z,17.73
2019-01-06T19:21:00.407Z,17.03
2019-01-06T19:24:08.931Z,18.40
2019-01-06T19:26:59.510Z,17.90
2019-01-06T19:29:51.410Z,19.97
2019-01-06T19:32:51.145Z,18.90
2019-01-06T19:35:37.313Z,21.00
2019-01-06T19:38:29.417Z,20.27
2019-01-06T19:41:36.985Z,20.13
2019-01-06T19:44:27.009Z,19.03
2019-01-06T19:47:19.401Z,19.53
2019-01-06T19:50:11.933Z,18.67
2019-01-06T19:53:01.578Z,19.63
2019-01-06T19:55:51.875Z,19.37
2019-01-06T19:58:48.177Z,20.40
2019-01-06T20:01:49.332Z,19.90
2019-01-06T20:04:49.372Z,19.27
2019-01-06T20:07:57.162Z,20.17
2019-01-06T20:10:50.839Z,21.00
2019-01-06T20:13:42.530Z,18.93
2019-01-06T20:16:31.009Z,20.47
2019-01-06T20:19:15.419Z,19.30
2019-01-06T20:22:15.169Z,19.27
2019-01-06T20:25:11.426Z,19.27
2019-01-06T20:28:16.020Z,18.87
2019-01-06T20:31:18.122Z,19.57
2019-01-06T20:34:17.863Z,18.17
2019-01-06T20:37:12.788Z,17.53
2019-01-06T20:40:17.295Z,21.23
2019-01-06T20:43:25.203Z,19.07
2019-01-06T20:46:33.011Z,18.27
2019-01-06T20:49:26.044Z,19.03
2019-01-06T20:52:17.259Z,17.57
2019-01-06T20:55:08.490Z,19.10
2019-01-06T20:58:16.926Z,18.77
2019-01-06T21:01:04.969Z,19.20
2019-01-06T21:03:58.168Z,20.97
2019-01-06T21:06:46.271Z,29.33
2019-01-06T21:09:31.310Z,30.07
2019-01-06T21:12:32.331Z,38.87
2019-01-06T21:15:27.463Z,31.07
2019-01-06T21:18:28.155Z,22.57
2019-01-06T21:21:29.950Z,24.40
2019-01-06T21:24:42.652Z,29.00
2019-01-06T21:27:37.279Z,35.43
2019-01-06T21:30:29.682Z,23.07
2019-01-06T21:33:25.627Z,22.53
2019-01-06T21:36:26.424Z,24.10
2019-01-06T21:39:22.919Z,23.93
2019-01-06T21:42:13.543Z,20.17
2019-01-06T21:45:02.802Z,20.57
2019-01-06T21:48:10.942Z,20.93
2019-01-06T21:50:59.744Z,20.73
2019-01-06T21:54:03.682Z,20.30
2019-01-06T21:56:56.229Z,22.43
2019-01-06T21:59:45.846Z,20.67
2019-01-06T22:02:34.069Z,20.13
2019-01-06T22:05:22.582Z,21.10
2019-01-06T22:08:11.156Z,21.23
2019-01-06T22:11:14.776Z,21.80
2019-01-06T22:14:12.947Z,22.23
2019-01-06T22:16:58.968Z,22.83
2019-01-06T22:19:55.072Z,22.30
2019-01-06T22:22:43.626Z,24.80
2019-01-06T22:25:28.666Z,20.50
2019-01-06T22:28:28.341Z,23.40
2019-01-06T22:31:25.233Z,21.17
2019-01-06T22:34:05.572Z,20.97
2019-01-06T22:36:54.713Z,20.37
2019-01-06T22:39:51.539Z,23.13
2019-01-06T22:42:40.021Z,24.03
2019-01-06T22:45:41.880Z,26.47
2019-01-06T22:48:38.920Z,21.10
2019-01-06T22:51:32.273Z,22.87
2019-01-06T22:54:29.337Z,20.77
2019-01-06T22:57:27.972Z,19.73
2019-01-06T23:00:26.497Z,19.90
2019-01-06T23:03:32.803Z,19.43
2019-01-06T23:06:27.286Z,20.10
2019-01-06T23:09:20.586Z,20.10
2019-01-06T23:12:38.173Z,19.50
2019-01-06T23:15:40.201Z,19.47
2019-01-06T23:18:32.605Z,18.87
2019-01-06T23:21:20.965Z,19.90
2019-01-06T23:24:28.837Z,19.27
2019-01-06T23:27:23.101Z,19.93
2019-01-06T23:30:21.684Z,18.87
2019-01-06T23:33:07.046Z,19.63
2019-01-06T23:35:59.480Z,19.90
2019-01-06T23:38:48.924Z,19.90
2019-01-06T23:41:36.923Z,20.00
2019-01-06T23:44:26.363Z,19.93
2019-01-06T23:47:28.083Z,21.13
2019-01-06T23:50:26.628Z,20.13
2019-01-06T23:53:22.054Z,19.70
2019-01-06T23:56:17.381Z,20.70
2019-01-06T23:59:09.562Z,19.87
